createdAt,value
2019-04-03T00:00:26.626Z,11.45
2019-04-03T00:02:55.614Z,11.41
2019-04-03T00:05:24.620Z,11.57
2019-04-03T00:07:53.568Z,11.51
2019-04-03T00:10:22.546Z,11.66
2019-04-03T00:12:51.422Z,11.60
2019-04-03T00:15:20.229Z,11.54
2019-04-03T00:17:49.048Z,11.56
2019-04-03T00:20:18.404Z,11.49
2019-04-03T00:22:47.944Z,11.51
2019-04-03T00:25:16.825Z,11.49
2019-04-03T00:27:45.747Z,11.48
2019-04-03T00:30:14.640Z,11.47
2019-04-03T00:32:43.569Z,11.40
2019-04-03T00:35:12.546Z,11.30
2019-04-03T00:37:41.676Z,11.30
2019-04-03T00:40:14.236Z,11.25
2019-04-03T00:42:44.074Z,11.20
2019-04-03T00:45:13.221Z,11.14
2019-04-03T00:47:42.135Z,11.07
2019-04-03T00:50:11.248Z,11.03
2019-04-03T00:52:40.128Z,11.01
2019-04-03T00:55:09.123Z,10.97
2019-04-03T00:57:38.078Z,10.92
2019-04-03T01:00:12.028Z,10.86
2019-04-03T01:02:40.953Z,10.88
2019-04-03T01:05:10.009Z,10.77
2019-04-03T01:07:38.853Z,10.77
2019-04-03T01:10:07.792Z,10.71
2019-04-03T01:12:36.607Z,10.66
2019-04-03T01:15:06.123Z,10.60
2019-04-03T01:17:35.217Z,10.55
2019-04-03T01:20:06.397Z,10.44
2019-04-03T01:22:37.260Z,10.40
2019-04-03T01:25:08.270Z,10.31
2019-04-03T01:27:37.228Z,10.18
2019-04-03T01:30:06.625Z,10.17
2019-04-03T01:32:35.434Z,10.13
2019-04-03T01:35:04.469Z,10.10
2019-04-03T01:37:33.422Z,10.01
2019-04-03T01:40:02.423Z,10.00
2019-04-03T01:42:31.422Z,9.97
2019-04-03T01:45:00.263Z,9.91
2019-04-03T01:47:29.107Z,9.83
2019-04-03T01:49:58.646Z,9.81
2019-04-03T01:52:28.046Z,9.73
2019-04-03T01:54:56.865Z,9.63
2019-04-03T01:57:25.718Z,9.62
2019-04-03T01:59:54.597Z,9.54
2019-04-03T02:02:23.554Z,9.52
2019-04-03T02:04:52.385Z,9.44
2019-04-03T02:07:25.316Z,9.38
2019-04-03T02:09:55.154Z,9.34
2019-04-03T02:12:24.011Z,9.27
2019-04-03T02:14:53.060Z,9.23
2019-04-03T02:17:23.906Z,9.13
2019-04-03T02:19:52.716Z,9.14
2019-04-03T02:22:21.638Z,9.09
2019-04-03T02:24:53.457Z,9.03
2019-04-03T02:27:23.516Z,9.02
2019-04-03T02:29:52.348Z,9.03
2019-04-03T02:32:23.276Z,8.64
2019-04-03T02:34:51.802Z,8.67
2019-04-03T02:37:20.690Z,8.63
2019-04-03T02:39:49.724Z,8.44
2019-04-03T02:42:19.643Z,8.45
2019-04-03T02:44:51.248Z,8.44
2019-04-03T02:47:18.949Z,8.39
2019-04-03T02:49:47.869Z,8.40
2019-04-03T02:52:16.855Z,8.47
2019-04-03T02:54:45.942Z,8.28
2019-04-03T02:57:17.514Z,8.32
2019-04-03T02:59:45.399Z,8.28
2019-04-03T03:02:14.606Z,8.33
2019-04-03T03:04:45.709Z,8.30
2019-04-03T03:07:14.461Z,8.28
2019-04-03T03:09:46.115Z,8.24
2019-04-03T03:12:13.980Z,8.23
2019-04-03T03:14:42.842Z,8.23
2019-04-03T03:17:12.624Z,8.31
2019-04-03T03:19:41.663Z,8.32
2019-04-03T03:22:10.582Z,8.22
2019-04-03T03:24:39.735Z,8.22
2019-04-03T03:27:10.124Z,8.22
2019-04-03T03:29:39.468Z,8.23
2019-04-03T03:32:17.475Z,8.36
2019-04-03T03:34:54.977Z,8.37
2019-04-03T03:37:12.606Z,8.38
2019-04-03T03:39:43.512Z,8.39
2019-04-03T03:42:11.720Z,8.36
2019-04-03T03:44:45.474Z,8.28
2019-04-03T03:47:11.961Z,8.30
2019-04-03T03:49:41.473Z,8.35
2019-04-03T03:52:13.211Z,8.37
2019-04-03T03:54:42.937Z,8.42
2019-04-03T03:57:12.147Z,8.46
2019-04-03T03:59:40.973Z,8.44
2019-04-03T04:02:11.052Z,8.45
2019-04-03T04:04:40.181Z,8.45
2019-04-03T04:07:09.119Z,8.44
2019-04-03T04:09:38.154Z,8.38
2019-04-03T04:12:07.544Z,8.43
2019-04-03T04:14:37.419Z,8.47
2019-04-03T04:17:09.581Z,8.47
2019-04-03T04:19:38.526Z,8.49
2019-04-03T04:22:07.817Z,8.54
2019-04-03T04:24:38.259Z,8.57
2019-04-03T04:27:07.128Z,8.57
2019-04-03T04:29:36.187Z,8.59
2019-04-03T04:32:05.306Z,8.59
2019-04-03T04:34:35.385Z,8.66
2019-04-03T04:37:04.322Z,8.72
2019-04-03T04:39:33.649Z,8.76
2019-04-03T04:42:04.640Z,8.70
2019-04-03T04:44:33.708Z,8.75
2019-04-03T04:47:02.559Z,8.78
2019-04-03T04:49:31.553Z,8.81
2019-04-03T04:52:00.436Z,8.79
2019-04-03T04:54:30.530Z,8.85
2019-04-03T04:57:00.227Z,8.87
2019-04-03T04:59:32.071Z,8.95
2019-04-03T05:02:00.819Z,8.94
2019-04-03T05:04:29.711Z,8.93
2019-04-03T05:07:00.192Z,8.96
2019-04-03T05:09:29.207Z,8.96
2019-04-03T05:12:00.415Z,8.95
2019-04-03T05:14:29.376Z,8.98
2019-04-03T05:16:58.257Z,9.01
2019-04-03T05:19:27.063Z,9.02
2019-04-03T05:21:56.027Z,9.04
2019-04-03T05:24:24.912Z,9.00
2019-04-03T05:26:53.839Z,9.04
2019-04-03T05:29:22.955Z,9.07
2019-04-03T05:31:52.133Z,9.10
2019-04-03T05:34:21.118Z,9.14
2019-04-03T05:36:52.728Z,9.17
2019-04-03T05:39:23.939Z,9.20
2019-04-03T05:41:53.521Z,9.17
2019-04-03T05:44:24.061Z,9.15
2019-04-03T05:46:54.374Z,9.22
2019-04-03T05:49:23.396Z,9.25
2019-04-03T05:51:52.398Z,9.28
2019-04-03T05:54:21.426Z,9.38
2019-04-03T05:56:52.089Z,9.41
2019-04-03T05:59:21.319Z,9.44
2019-04-03T06:01:50.216Z,9.51
2019-04-03T06:04:19.102Z,9.54
2019-04-03T06:06:48.044Z,9.54
2019-04-03T06:09:16.933Z,9.55
2019-04-03T06:11:45.811Z,9.61
2019-04-03T06:14:14.712Z,9.61
2019-04-03T06:16:43.622Z,9.60
2019-04-03T06:19:12.518Z,9.61
2019-04-03T06:21:45.642Z,9.63
2019-04-03T06:24:14.229Z,9.64
2019-04-03T06:26:44.876Z,9.65
2019-04-03T06:29:13.944Z,9.69
2019-04-03T06:31:43.210Z,9.73
2019-04-03T06:34:12.083Z,9.79
2019-04-03T06:36:41.108Z,9.87
2019-04-03T06:39:10.142Z,9.92
2019-04-03T06:41:41.654Z,9.91
2019-04-03T06:44:09.925Z,9.94
2019-04-03T06:46:39.016Z,9.93
2019-04-03T06:49:08.893Z,9.93
2019-04-03T06:51:37.963Z,9.90
2019-04-03T06:54:08.236Z,9.97
2019-04-03T06:56:40.011Z,10.07
2019-04-03T06:59:08.325Z,10.06
2019-04-03T07:01:37.338Z,10.09
2019-04-03T07:04:07.174Z,10.15
2019-04-03T07:06:36.527Z,10.30
2019-04-03T07:09:07.494Z,10.40
2019-04-03T07:11:36.534Z,10.55
2019-04-03T07:14:05.382Z,10.61
2019-04-03T07:16:34.161Z,10.93
2019-04-03T07:19:03.156Z,11.18
2019-04-03T07:21:32.480Z,11.26
2019-04-03T07:24:01.429Z,11.31
2019-04-03T07:26:30.352Z,11.15
2019-04-03T07:28:59.526Z,11.12
2019-04-03T07:31:28.597Z,11.25
2019-04-03T07:33:58.633Z,11.19
2019-04-03T07:36:28.160Z,11.28
2019-04-03T07:38:58.556Z,11.45
2019-04-03T07:41:29.736Z,11.93
2019-04-03T07:43:59.341Z,12.52
2019-04-03T07:46:28.424Z,12.77
2019-04-03T07:48:59.889Z,12.64
2019-04-03T07:51:28.061Z,13.17
2019-04-03T07:53:57.259Z,13.53
2019-04-03T07:56:27.258Z,13.57
2019-04-03T07:58:56.218Z,12.93
2019-04-03T08:01:25.336Z,13.08
2019-04-03T08:03:54.210Z,12.95
2019-04-03T08:06:23.606Z,12.73
2019-04-03T08:09:06.506Z,13.11
2019-04-03T08:11:24.631Z,13.17
2019-04-03T08:13:53.617Z,13.13
2019-04-03T08:16:22.890Z,13.28
2019-04-03T08:18:52.479Z,13.65
2019-04-03T08:21:21.920Z,14.17
2019-04-03T08:23:50.794Z,14.78
2019-04-03T08:26:20.009Z,14.53
2019-04-03T08:28:49.118Z,14.59
2019-04-03T08:31:18.624Z,14.47
2019-04-03T08:33:47.610Z,14.07
2019-04-03T08:36:24.668Z,14.10
2019-04-03T08:38:47.543Z,13.85
2019-04-03T08:41:16.540Z,14.12
2019-04-03T08:43:45.340Z,14.08
2019-04-03T08:46:14.202Z,14.06
2019-04-03T08:48:43.044Z,14.21
2019-04-03T08:51:12.440Z,14.92
2019-04-03T08:53:41.370Z,15.04
2019-04-03T08:56:10.384Z,15.28
2019-04-03T08:58:39.304Z,15.50
2019-04-03T09:01:10.753Z,15.45
2019-04-03T09:03:39.964Z,15.46
2019-04-03T09:06:09.142Z,15.47
2019-04-03T09:08:38.665Z,15.94
2019-04-03T09:11:09.566Z,15.84
2019-04-03T09:13:38.701Z,15.66
2019-04-03T09:16:10.100Z,15.84
2019-04-03T09:18:38.792Z,16.15
2019-04-03T09:21:10.470Z,16.33
2019-04-03T09:23:39.292Z,16.18
2019-04-03T09:26:08.109Z,15.93
2019-04-03T09:28:37.185Z,16.09
2019-04-03T09:31:06.246Z,16.07
2019-04-03T09:33:35.285Z,16.38
2019-04-03T09:36:04.593Z,16.05
2019-04-03T09:38:35.498Z,16.14
2019-04-03T09:41:05.315Z,15.93
2019-04-03T09:43:34.413Z,15.96
2019-04-03T09:46:03.542Z,16.14
2019-04-03T09:48:32.694Z,16.00
2019-04-03T09:51:01.728Z,16.21
2019-04-03T09:53:30.750Z,16.35
2019-04-03T09:55:59.707Z,16.38
2019-04-03T09:58:28.720Z,16.50
2019-04-03T10:00:57.561Z,16.79
2019-04-03T10:03:26.480Z,17.02
2019-04-03T10:05:55.358Z,16.93
2019-04-03T10:08:24.280Z,17.43
2019-04-03T10:10:54.953Z,17.47
2019-04-03T10:13:26.215Z,17.26
2019-04-03T10:15:55.362Z,17.26
2019-04-03T10:18:24.179Z,17.23
2019-04-03T10:20:54.189Z,17.32
2019-04-03T10:23:29.044Z,17.33
2019-04-03T10:25:58.368Z,17.24
2019-04-03T10:28:27.597Z,17.26
2019-04-03T10:30:57.173Z,17.19
2019-04-03T10:33:32.726Z,17.48
2019-04-03T10:36:02.219Z,17.32
2019-04-03T10:38:31.623Z,17.44
2019-04-03T10:41:00.765Z,17.34
2019-04-03T10:43:31.540Z,17.53
2019-04-03T10:46:00.992Z,17.25
2019-04-03T10:48:35.880Z,17.27
2019-04-03T10:51:05.342Z,17.28
2019-04-03T10:53:35.994Z,17.41
2019-04-03T10:56:07.114Z,17.54
2019-04-03T10:58:38.079Z,17.63
2019-04-03T11:01:11.249Z,17.77
2019-04-03T11:03:42.748Z,17.73
2019-04-03T11:06:11.663Z,17.76
2019-04-03T11:08:40.560Z,18.10
2019-04-03T11:11:09.504Z,18.04
2019-04-03T11:13:44.989Z,18.10
2019-04-03T11:16:16.804Z,18.27
2019-04-03T11:18:58.035Z,18.16
2019-04-03T11:21:16.446Z,18.24
2019-04-03T11:23:45.960Z,18.46
2019-04-03T11:26:17.764Z,18.25
2019-04-03T11:28:45.933Z,18.45
2019-04-03T11:31:24.935Z,18.67
2019-04-03T11:33:51.422Z,18.69
2019-04-03T11:36:25.988Z,18.62
2019-04-03T11:38:53.980Z,18.64
2019-04-03T11:41:23.888Z,18.87
2019-04-03T11:43:53.503Z,18.81
2019-04-03T11:46:22.942Z,19.03
2019-04-03T11:48:52.277Z,18.90
2019-04-03T11:51:21.670Z,19.24
2019-04-03T11:53:51.258Z,19.23
2019-04-03T11:56:25.666Z,19.39
2019-04-03T11:58:55.340Z,19.45
2019-04-03T12:01:24.559Z,19.46
2019-04-03T12:03:54.034Z,19.53
2019-04-03T12:06:23.078Z,19.44
2019-04-03T12:08:52.422Z,19.37
2019-04-03T12:11:24.803Z,19.37
2019-04-03T12:13:54.260Z,19.81
2019-04-03T12:16:24.784Z,19.53
2019-04-03T12:18:53.899Z,19.81
2019-04-03T12:21:26.470Z,19.82
2019-04-03T12:23:57.778Z,19.85
2019-04-03T12:26:26.483Z,19.84
2019-04-03T12:28:59.410Z,19.80
2019-04-03T12:31:28.829Z,20.05
2019-04-03T12:34:04.513Z,19.94
2019-04-03T12:36:34.683Z,19.97
2019-04-03T12:39:04.209Z,19.93
2019-04-03T12:41:37.904Z,20.19
2019-04-03T12:44:11.848Z,20.32
2019-04-03T12:46:42.430Z,20.33
2019-04-03T12:49:11.432Z,20.28
2019-04-03T12:51:42.385Z,20.31
2019-04-03T12:54:13.276Z,20.43
2019-04-03T12:56:42.683Z,20.33
2019-04-03T12:59:11.723Z,20.36
2019-04-03T13:01:40.972Z,20.41
2019-04-03T13:04:10.417Z,20.31
2019-04-03T13:06:41.862Z,20.19
2019-04-03T13:09:11.127Z,20.32
2019-04-03T13:11:49.930Z,20.46
2019-04-03T13:14:25.101Z,20.27
2019-04-03T13:16:50.402Z,20.38
2019-04-03T13:19:19.844Z,20.40
2019-04-03T13:21:54.000Z,20.47
2019-04-03T13:24:23.534Z,20.69
2019-04-03T13:26:52.757Z,20.51
2019-04-03T13:29:28.658Z,20.61
2019-04-03T13:31:57.971Z,20.66
2019-04-03T13:34:26.843Z,20.52
2019-04-03T13:36:56.296Z,20.71
2019-04-03T13:39:25.273Z,20.43
2019-04-03T13:41:54.321Z,20.68
2019-04-03T13:44:26.065Z,20.57
2019-04-03T13:46:57.559Z,20.45
2019-04-03T13:49:29.331Z,20.49
2019-04-03T13:52:01.697Z,20.60
2019-04-03T13:54:28.216Z,20.81
2019-04-03T13:56:58.902Z,20.95
2019-04-03T13:59:37.036Z,20.77
2019-04-03T14:02:14.037Z,20.44
2019-04-03T14:04:43.942Z,20.24
2019-04-03T14:07:15.975Z,19.90
2019-04-03T14:09:50.211Z,19.71
2019-04-03T14:12:17.171Z,19.77
2019-04-03T14:14:47.841Z,19.92
2019-04-03T14:17:17.223Z,19.88
2019-04-03T14:19:50.895Z,19.84
2019-04-03T14:22:16.994Z,19.68
2019-04-03T14:24:51.482Z,19.49
2019-04-03T14:27:23.179Z,19.61
2019-04-03T14:29:47.733Z,19.68
2019-04-03T14:32:26.511Z,19.72
2019-04-03T14:35:04.872Z,19.78
2019-04-03T14:37:27.257Z,19.88
2019-04-03T14:40:00.569Z,20.07
2019-04-03T14:42:29.865Z,20.25
2019-04-03T14:45:01.367Z,20.51
2019-04-03T14:47:31.098Z,20.55
2019-04-03T14:50:00.673Z,20.53
2019-04-03T14:52:29.711Z,20.65
2019-04-03T14:55:04.881Z,20.40
2019-04-03T14:57:34.952Z,20.53
2019-04-03T15:00:23.027Z,20.40
2019-04-03T15:02:41.432Z,20.39
2019-04-03T15:05:11.942Z,20.12
2019-04-03T15:07:50.922Z,19.87
2019-04-03T15:10:31.155Z,19.75
2019-04-03T15:13:04.034Z,19.77
2019-04-03T15:15:33.321Z,19.68
2019-04-03T15:18:02.189Z,19.60
2019-04-03T15:20:32.920Z,19.40
2019-04-03T15:23:04.146Z,19.37
2019-04-03T15:25:32.642Z,19.44
2019-04-03T15:28:01.874Z,19.45
2019-04-03T15:30:30.753Z,19.38
2019-04-03T15:32:59.737Z,19.45
2019-04-03T15:35:29.841Z,19.51
2019-04-03T15:37:59.306Z,19.54
2019-04-03T15:40:28.365Z,19.63
2019-04-03T15:42:57.254Z,19.67
2019-04-03T15:45:26.298Z,19.61
2019-04-03T15:47:57.653Z,19.60
2019-04-03T15:50:28.435Z,19.58
2019-04-03T15:52:58.130Z,19.60
2019-04-03T15:55:27.284Z,19.64
2019-04-03T15:57:56.110Z,19.61
2019-04-03T16:00:25.735Z,19.60
2019-04-03T16:02:54.884Z,19.52
2019-04-03T16:05:23.774Z,19.48
2019-04-03T16:07:52.798Z,19.37
2019-04-03T16:10:22.738Z,19.38
2019-04-03T16:12:52.565Z,19.33
2019-04-03T16:15:22.738Z,19.25
2019-04-03T16:17:52.304Z,19.20
2019-04-03T16:20:21.413Z,19.09
2019-04-03T16:22:50.490Z,19.03
2019-04-03T16:25:19.601Z,18.94
2019-04-03T16:27:48.869Z,18.88
2019-04-03T16:30:19.309Z,18.78
2019-04-03T16:32:48.530Z,18.70
2019-04-03T16:35:17.532Z,18.69
2019-04-03T16:37:46.282Z,18.63
2019-04-03T16:40:15.917Z,18.47
2019-04-03T16:42:47.464Z,18.36
2019-04-03T16:45:15.632Z,18.25
2019-04-03T16:47:45.839Z,18.13
2019-04-03T16:50:14.954Z,18.06
2019-04-03T16:52:47.330Z,17.99
2019-04-03T16:55:16.743Z,17.88
2019-04-03T16:57:45.718Z,17.90
2019-04-03T17:00:14.719Z,17.81
2019-04-03T17:02:43.762Z,17.80
2019-04-03T17:05:12.658Z,17.72
2019-04-03T17:07:41.885Z,17.60
2019-04-03T17:10:11.130Z,17.61
2019-04-03T17:12:40.185Z,17.53
2019-04-03T17:15:10.103Z,17.49
2019-04-03T17:17:39.248Z,17.47
2019-04-03T17:20:09.695Z,17.43
2019-04-03T17:22:41.378Z,17.39
2019-04-03T17:25:11.672Z,17.39
2019-04-03T17:27:40.561Z,17.32
2019-04-03T17:30:10.292Z,17.24
2019-04-03T17:32:39.186Z,17.12
2019-04-03T17:35:08.753Z,17.12
2019-04-03T17:37:38.439Z,17.04
2019-04-03T17:40:08.820Z,16.95
2019-04-03T17:42:39.284Z,16.83
2019-04-03T17:45:09.298Z,16.71
2019-04-03T17:47:38.243Z,16.69
2019-04-03T17:50:07.357Z,16.57
2019-04-03T17:52:37.035Z,16.56
2019-04-03T17:55:09.524Z,16.46
2019-04-03T17:57:37.805Z,16.47
2019-04-03T18:00:09.507Z,16.36
2019-04-03T18:02:38.982Z,16.31
2019-04-03T18:05:09.367Z,16.24
2019-04-03T18:07:38.627Z,16.16
2019-04-03T18:10:10.651Z,16.04
2019-04-03T18:12:38.598Z,16.00
2019-04-03T18:15:08.720Z,15.89
2019-04-03T18:17:37.651Z,15.85
2019-04-03T18:20:07.491Z,15.77
2019-04-03T18:22:37.132Z,15.77
2019-04-03T18:25:08.291Z,15.70
2019-04-03T18:27:37.516Z,15.65
2019-04-03T18:30:11.093Z,15.56
2019-04-03T18:32:38.385Z,15.56
2019-04-03T18:35:07.986Z,15.53
2019-04-03T18:37:36.996Z,15.44
2019-04-03T18:40:09.629Z,15.43
2019-04-03T18:42:38.584Z,15.30
2019-04-03T18:45:08.050Z,15.21
2019-04-03T18:47:41.400Z,15.22
2019-04-03T18:50:10.063Z,15.13
2019-04-03T18:52:38.862Z,15.07
2019-04-03T18:55:08.421Z,14.98
2019-04-03T18:57:37.270Z,14.95
2019-04-03T19:00:07.108Z,14.92
2019-04-03T19:02:38.895Z,14.87
2019-04-03T19:05:10.123Z,14.79
2019-04-03T19:07:40.679Z,14.69
2019-04-03T19:10:11.874Z,14.46
2019-04-03T19:12:43.094Z,14.37
2019-04-03T19:15:13.462Z,14.47
2019-04-03T19:17:42.305Z,14.44
2019-04-03T19:20:11.592Z,14.40
2019-04-03T19:22:40.413Z,14.35
2019-04-03T19:25:14.165Z,14.12
2019-04-03T19:27:43.135Z,14.19
2019-04-03T19:30:12.228Z,14.09
2019-04-03T19:32:43.264Z,13.97
2019-04-03T19:35:12.069Z,13.83
2019-04-03T19:37:40.971Z,13.79
2019-04-03T19:40:10.597Z,13.65
2019-04-03T19:42:39.662Z,13.50
2019-04-03T19:45:09.345Z,13.57
2019-04-03T19:47:38.309Z,13.57
2019-04-03T19:50:07.897Z,13.41
2019-04-03T19:52:37.384Z,13.20
2019-04-03T19:55:08.745Z,13.05
2019-04-03T19:57:37.799Z,12.90
2019-04-03T20:00:07.398Z,12.83
2019-04-03T20:02:38.187Z,12.84
2019-04-03T20:05:08.091Z,12.82
2019-04-03T20:07:37.187Z,12.75
2019-04-03T20:10:09.036Z,12.64
2019-04-03T20:12:40.078Z,12.65
2019-04-03T20:15:09.253Z,12.64
2019-04-03T20:17:38.414Z,12.66
2019-04-03T20:20:07.722Z,12.66
2019-04-03T20:22:42.091Z,12.64
2019-04-03T20:25:09.743Z,12.61
2019-04-03T20:27:38.721Z,12.32
2019-04-03T20:30:08.213Z,12.21
2019-04-03T20:32:40.038Z,11.99
2019-04-03T20:35:08.003Z,11.87
2019-04-03T20:37:36.990Z,11.64
2019-04-03T20:40:07.126Z,11.66
2019-04-03T20:42:36.050Z,11.80
2019-04-03T20:45:05.736Z,11.59
2019-04-03T20:47:34.767Z,11.51
2019-04-03T20:50:06.679Z,11.42
2019-04-03T20:52:36.015Z,11.40
2019-04-03T20:55:05.553Z,11.40
2019-04-03T20:57:34.648Z,11.34
2019-04-03T21:00:03.678Z,11.44
2019-04-03T21:02:33.893Z,11.48
2019-04-03T21:05:02.889Z,11.46
2019-04-03T21:07:31.728Z,11.53
2019-04-03T21:10:01.504Z,11.43
2019-04-03T21:12:31.372Z,11.34
2019-04-03T21:15:08.229Z,11.27
2019-04-03T21:17:30.754Z,11.28
2019-04-03T21:19:59.618Z,11.27
2019-04-03T21:22:30.244Z,11.25
2019-04-03T21:24:59.030Z,11.24
2019-04-03T21:27:27.922Z,11.16
2019-04-03T21:29:58.238Z,11.08
2019-04-03T21:32:28.894Z,11.08
2019-04-03T21:34:59.197Z,10.94
2019-04-03T21:37:28.069Z,10.84
2019-04-03T21:39:56.906Z,10.74
2019-04-03T21:42:26.972Z,10.62
2019-04-03T21:44:56.294Z,10.52
2019-04-03T21:47:25.003Z,10.34
2019-04-03T21:49:53.960Z,10.12
2019-04-03T21:52:23.758Z,10.00
2019-04-03T21:54:52.459Z,9.90
2019-04-03T21:57:21.234Z,9.76
2019-04-03T21:59:50.003Z,9.70
2019-04-03T22:02:18.864Z,9.60
2019-04-03T22:04:47.593Z,9.48
2019-04-03T22:07:16.479Z,9.34
2019-04-03T22:09:45.445Z,9.26
2019-04-03T22:12:14.210Z,9.19
2019-04-03T22:14:43.466Z,9.13
2019-04-03T22:17:12.345Z,9.11
2019-04-03T22:19:41.147Z,9.04
2019-04-03T22:22:10.110Z,8.93
2019-04-03T22:24:38.940Z,8.84
2019-04-03T22:27:07.746Z,8.83
2019-04-03T22:29:36.674Z,8.71
2019-04-03T22:32:05.697Z,8.58
2019-04-03T22:34:37.063Z,8.56
2019-04-03T22:37:05.806Z,8.53
2019-04-03T22:39:34.619Z,8.50
2019-04-03T22:42:03.390Z,8.44
2019-04-03T22:44:32.304Z,8.37
2019-04-03T22:47:01.274Z,8.32
2019-04-03T22:49:30.270Z,8.29
2019-04-03T22:51:59.016Z,8.25
2019-04-03T22:54:27.900Z,8.18
2019-04-03T22:56:56.821Z,8.09
2019-04-03T22:59:25.804Z,8.06
2019-04-03T23:01:54.633Z,7.97
2019-04-03T23:04:27.317Z,7.97
2019-04-03T23:06:56.061Z,7.90
2019-04-03T23:09:25.552Z,7.87
2019-04-03T23:11:54.591Z,7.80
2019-04-03T23:14:23.376Z,7.81
2019-04-03T23:16:52.147Z,7.72
2019-04-03T23:19:23.919Z,7.70
2019-04-03T23:21:52.883Z,7.62
2019-04-03T23:24:23.649Z,7.64
2019-04-03T23:26:52.517Z,7.59
2019-04-03T23:29:21.366Z,7.57
2019-04-03T23:31:50.261Z,7.53
2019-04-03T23:34:19.627Z,7.50
2019-04-03T23:36:48.460Z,7.42
2019-04-03T23:39:17.332Z,7.40
2019-04-03T23:41:49.199Z,7.36
2019-04-03T23:44:21.232Z,7.31
2019-04-03T23:46:50.120Z,7.24
2019-04-03T23:49:20.942Z,7.24
2019-04-03T23:51:49.714Z,7.21
2019-04-03T23:54:18.508Z,7.22
2019-04-03T23:56:47.379Z,7.21
2019-04-03T23:59:16.215Z,7.13
